Time;durP1;ratioP1;P1;durP2;ratioP2;P2;SDS_P1;SDS_P2;PMS_P1;PMS_P2;Temp;Humidity;BMP_temperature;BMP_pressure;BME280_temperature;BME280_humidity;BME280_pressure;Samples;Min_cycle;Max_cycle;Signal;HPM_P1;HPM_P2
2021/08/09 00:00:57;;;;;;;2.85;1.42;;;;;;;21.27;58.08;100495.03;4923866;29;20043;-64
2021/08/09 00:03:22;;;;;;;2.90;1.13;;;;;;;21.26;58.09;100498.75;4942920;29;20460;-64
2021/08/09 00:05:48;;;;;;;3.70;1.30;;;;;;;21.26;58.01;100493.41;4965011;28;20469;-67
2021/08/09 00:08:13;;;;;;;2.78;1.40;;;;;;;21.26;57.60;100496.06;4967459;28;20034;-65
2021/08/09 00:10:39;;;;;;;3.80;1.20;;;;;;;21.27;58.02;100496.88;4967150;28;20038;-64
2021/08/09 00:13:04;;;;;;;2.38;1.30;;;;;;;21.27;57.67;100503.03;4952220;28;20134;-65
2021/08/09 00:15:30;;;;;;;2.45;1.30;;;;;;;21.26;57.70;100496.06;4948609;28;20031;-65
2021/08/09 00:17:55;;;;;;;2.25;1.45;;;;;;;21.26;57.74;100496.06;4969277;28;20042;-64
2021/08/09 00:20:21;;;;;;;3.95;1.23;;;;;;;21.26;57.79;100501.41;4967182;28;20034;-65
2021/08/09 00:22:47;;;;;;;2.80;1.30;;;;;;;21.26;57.79;100501.41;4968785;28;20625;-65
2021/08/09 00:25:12;;;;;;;2.88;1.45;;;;;;;21.27;58.13;100502.22;4950740;28;20042;-65
2021/08/09 00:27:38;;;;;;;3.38;1.10;;;;;;;21.25;57.71;100498.97;4967449;28;20358;-65
2021/08/09 00:30:05;;;;;;;3.00;1.30;;;;;;;21.26;58.02;100498.75;4951402;28;20151;-65
2021/08/09 00:32:31;;;;;;;2.00;1.10;;;;;;;21.26;58.07;100492.59;4965369;28;20125;-63
2021/08/09 00:34:56;;;;;;;4.15;1.60;;;;;;;21.24;57.80;100498.13;4954956;28;20517;-63
2021/08/09 00:37:22;;;;;;;1.50;1.00;;;;;;;21.25;57.62;100493.63;4953490;29;20055;-64
2021/08/09 00:39:47;;;;;;;2.53;1.33;;;;;;;21.25;58.06;100494.44;4935960;29;20054;-64
2021/08/09 00:42:12;;;;;;;2.10;1.13;;;;;;;21.25;57.78;100494.44;4952983;29;20385;-64
2021/08/09 00:44:38;;;;;;;2.28;1.02;;;;;;;21.24;58.01;100498.13;4936220;29;20404;-64
2021/08/09 00:47:03;;;;;;;2.28;1.20;;;;;;;21.25;57.52;100493.63;4951938;29;20062;-64
2021/08/09 00:49:29;;;;;;;2.33;1.10;;;;;;;21.25;57.68;100496.28;4935804;29;20031;-63
2021/08/09 00:51:55;;;;;;;2.83;1.65;;;;;;;21.25;57.47;100502.44;4952702;28;20046;-64
2021/08/09 00:54:23;;;;;;;2.35;1.10;;;;;;;21.24;57.72;100498.13;4952707;28;20157;-65
2021/08/09 00:56:49;;;;;;;2.17;1.10;;;;;;;21.25;57.80;100504.28;4952677;28;20453;-66
2021/08/09 00:59:14;;;;;;;2.78;1.17;;;;;;;21.24;57.40;100500.78;4951716;28;20039;-65
2021/08/09 01:01:40;;;;;;;2.38;1.10;;;;;;;21.25;57.71;100505.13;4951891;28;20532;-64
2021/08/09 01:04:06;;;;;;;5.47;1.50;;;;;;;21.23;57.94;100494.63;4921811;29;20031;-64
2021/08/09 01:06:32;;;;;;;3.30;1.23;;;;;;;21.23;57.97;100494.63;4962958;28;20070;-63
2021/08/09 01:09:26;;;;;;;3.75;1.40;;;;;;;21.21;57.98;100498.53;4966078;28;20038;-66
2021/08/09 01:12:13;;;;;;;;;;;;;;;21.13;57.81;100504.13;4966028;28;20039;-66
2021/08/09 01:15:03;;;;;;;1.90;1.20;;;;;;;21.17;57.90;100500.03;4953687;28;19965;-64
2021/08/09 01:17:34;;;;;;;3.75;1.50;;;;;;;21.21;57.97;100498.53;4964121;28;20027;-64
2021/08/09 01:20:03;;;;;;;4.22;1.48;;;;;;;21.21;57.84;100499.38;4968785;28;20043;-65
2021/08/09 01:22:39;;;;;;;2.55;1.50;;;;;;;21.19;57.83;100492.63;4948376;28;20385;-63
2021/08/09 01:25:25;;;;;;;3.83;1.60;;;;;;;21.21;57.65;100501.22;4967894;28;20037;-64
2021/08/09 01:27:53;;;;;;;3.38;1.33;;;;;;;21.20;58.02;100492.41;4967099;28;20026;-66
2021/08/09 01:30:20;;;;;;;3.75;1.58;;;;;;;21.21;57.90;100501.22;4966674;28;20051;-65
2021/08/09 01:32:48;;;;;;;3.80;1.52;;;;;;;21.21;58.13;100501.22;4966060;28;20039;-65
2021/08/09 01:35:15;;;;;;;4.57;1.85;;;;;;;21.20;58.17;100497.72;4952007;28;20023;-66
2021/08/09 01:37:45;;;;;;;3.85;1.70;;;;;;;21.19;57.82;100504.09;4952768;28;20038;-64
2021/08/09 01:40:13;;;;;;;2.38;1.38;;;;;;;21.20;58.10;100505.75;4951482;28;20031;-64
2021/08/09 01:42:43;;;;;;;4.68;1.60;;;;;;;21.20;58.14;100502.25;4952403;28;20039;-64
2021/08/09 01:45:09;;;;;;;5.50;1.83;;;;;;;21.21;58.00;100498.53;4951977;28;20050;-64
2021/08/09 01:47:35;;;;;;;2.47;1.50;;;;;;;21.22;57.76;100492.19;4951366;28;20035;-64
2021/08/09 01:50:02;;;;;;;3.28;1.63;;;;;;;21.20;57.81;100500.41;4952052;28;20038;-64
2021/08/09 01:52:30;;;;;;;4.18;1.95;;;;;;;21.20;57.67;100494.25;4935239;29;20338;-64
2021/08/09 01:54:56;;;;;;;3.78;1.55;;;;;;;21.20;57.75;100499.59;4951482;28;20035;-65
2021/08/09 01:57:24;;;;;;;2.70;1.30;;;;;;;21.20;57.82;100491.59;4952147;28;20031;-65
2021/08/09 01:59:50;;;;;;;3.38;1.50;;;;;;;21.20;57.70;100491.59;4952397;28;20123;-66
2021/08/09 02:02:26;;;;;;;2.10;1.20;;;;;;;21.17;57.86;100484.84;4950399;28;20064;-64
2021/08/09 02:04:52;;;;;;;4.43;1.33;;;;;;;21.19;58.13;100489.94;4951939;28;20048;-64
2021/08/09 02:07:17;;;;;;;3.63;1.60;;;;;;;21.19;57.81;100488.09;4965475;28;20042;-65
2021/08/09 02:09:43;;;;;;;2.63;1.40;;;;;;;21.19;57.97;100493.44;4967294;28;20033;-66
2021/08/09 02:12:08;;;;;;;3.88;1.52;;;;;;;21.20;58.06;100491.59;4964279;28;20090;-65
2021/08/09 02:14:40;;;;;;;2.75;1.35;;;;;;;21.19;57.99;100496.09;4950420;28;20039;-65
2021/08/09 02:17:14;;;;;;;4.95;1.52;;;;;;;21.19;57.78;100495.28;4963230;28;20031;-63
2021/08/09 02:19:48;;;;;;;3.85;1.75;;;;;;;21.19;58.22;100498.75;4968185;28;20057;-63
2021/08/09 02:22:22;;;;;;;3.10;1.33;;;;;;;21.18;57.96;100489.13;4958103;28;20035;-64
2021/08/09 02:24:59;;;;;;;2.75;1.40;;;;;;;21.17;57.95;100492.00;4959233;28;20054;-64
2021/08/09 02:27:33;;;;;;;2.88;1.50;;;;;;;21.18;57.67;100482.97;4959678;28;20042;-64
2021/08/09 02:30:00;;;;;;;2.90;1.30;;;;;;;21.19;57.81;100479.28;4955512;28;20500;-64
2021/08/09 02:32:28;;;;;;;3.60;1.58;;;;;;;21.19;58.25;100481.94;4944238;28;20118;-64
2021/08/09 02:34:56;;;;;;;2.42;1.23;;;;;;;21.19;57.91;100476.59;4953876;28;20023;-64
2021/08/09 02:37:22;;;;;;;2.63;1.30;;;;;;;21.20;57.98;100475.56;4951527;29;20027;-65
2021/08/09 02:39:49;;;;;;;3.70;1.58;;;;;;;21.18;57.96;100477.66;4952644;28;20043;-65
2021/08/09 02:42:15;;;;;;;3.25;1.50;;;;;;;21.18;57.78;100478.47;4955405;28;20042;-64
2021/08/09 02:44:41;;;;;;;2.72;1.70;;;;;;;21.18;57.77;100472.31;4955896;28;20104;-65
2021/08/09 02:47:10;;;;;;;2.95;1.52;;;;;;;21.19;57.84;100479.28;4935148;29;20050;-65
2021/08/09 02:49:39;;;;;;;2.90;1.50;;;;;;;21.19;57.86;100476.59;4951496;29;20051;-64
2021/08/09 02:52:07;;;;;;;3.70;1.40;;;;;;;21.18;57.84;100478.47;4950639;29;20118;-64
2021/08/09 02:54:34;;;;;;;4.78;1.70;;;;;;;21.18;57.89;100477.66;4950948;29;20043;-65
2021/08/09 02:57:01;;;;;;;3.70;1.60;;;;;;;21.19;58.05;100473.94;4951657;29;20043;-64
2021/08/09 02:59:26;;;;;;;4.68;1.58;;;;;;;21.18;57.79;100477.66;4951372;29;20035;-64
2021/08/09 03:01:52;;;;;;;3.53;1.48;;;;;;;21.18;57.85;100474.97;4953797;28;20046;-64
2021/08/09 03:04:21;;;;;;;3.33;1.42;;;;;;;21.17;58.01;100476.84;4960443;28;20122;-64
2021/08/09 03:06:46;;;;;;;2.88;1.30;;;;;;;21.17;58.17;100479.50;4950745;28;20031;-64
2021/08/09 03:09:12;;;;;;;2.38;1.25;;;;;;;21.16;57.92;100477.88;4950548;29;20046;-65
2021/08/09 03:11:41;;;;;;;2.72;1.42;;;;;;;21.18;58.18;100474.97;4951135;29;20375;-65
2021/08/09 03:14:19;;;;;;;3.83;1.63;;;;;;;21.18;57.82;100482.97;4951194;29;20377;-64
2021/08/09 03:16:45;;;;;;;2.50;1.40;;;;;;;21.18;57.84;100488.31;4950835;29;20035;-64
2021/08/09 03:19:10;;;;;;;3.55;1.27;;;;;;;21.17;57.96;100486.69;4950668;28;20356;-64
2021/08/09 03:21:35;;;;;;;2.30;1.25;;;;;;;21.17;57.86;100481.34;4951059;29;20035;-64
2021/08/09 03:24:01;;;;;;;2.30;1.30;;;;;;;21.17;57.71;100494.69;4950188;29;20477;-64
2021/08/09 03:26:26;;;;;;;4.40;1.25;;;;;;;21.17;58.02;100497.34;4951331;29;20677;-64
2021/08/09 03:28:52;;;;;;;2.50;1.15;;;;;;;21.17;57.95;100492.00;4950552;29;20050;-64
2021/08/09 03:31:17;;;;;;;3.50;1.40;;;;;;;21.16;57.84;100491.19;4937346;28;20117;-64
2021/08/09 03:33:42;;;;;;;2.75;1.08;;;;;;;21.17;57.74;100487.50;4953460;28;20206;-65
2021/08/09 03:36:08;;;;;;;2.85;1.35;;;;;;;21.16;57.81;100495.72;4933211;29;20028;-64
2021/08/09 03:38:33;;;;;;;2.17;1.20;;;;;;;21.15;57.85;100500.25;4950368;29;20035;-65
2021/08/09 03:40:59;;;;;;;4.60;1.50;;;;;;;21.16;57.61;100503.72;4950711;29;20035;-64
2021/08/09 03:43:25;;;;;;;2.30;1.05;;;;;;;21.17;57.70;100500.03;4950455;28;20062;-65
2021/08/09 03:45:50;;;;;;;2.53;1.15;;;;;;;21.16;57.89;100501.88;4950171;29;20754;-65
2021/08/09 03:48:15;;;;;;;2.45;1.30;;;;;;;21.16;57.81;100501.06;4950385;29;20480;-64
2021/08/09 03:50:41;;;;;;;2.33;1.30;;;;;;;21.15;57.69;100500.25;4933361;29;20504;-64
2021/08/09 03:53:06;;;;;;;2.92;1.30;;;;;;;21.17;57.91;100508.03;4952543;28;20741;-65
2021/08/09 03:55:32;;;;;;;2.80;1.17;;;;;;;21.15;57.57;100504.75;4953882;29;20043;-65
2021/08/09 03:57:57;;;;;;;1.77;1.05;;;;;;;21.15;57.94;100507.41;4940488;29;20040;-64
2021/08/09 04:00:23;;;;;;;3.15;1.13;;;;;;;21.15;57.93;100505.56;4934012;29;20040;-65
2021/08/09 04:02:48;;;;;;;2.90;1.38;;;;;;;21.15;58.08;100508.25;4947373;29;20035;-64
2021/08/09 04:05:14;;;;;;;2.47;1.40;;;;;;;21.15;57.81;100504.75;4947248;29;20036;-64
2021/08/09 04:07:39;;;;;;;2.13;1.13;;;;;;;21.15;57.66;100504.75;4945888;29;20396;-64
2021/08/09 04:10:07;;;;;;;2.42;1.15;;;;;;;21.14;57.62;100503.91;4952630;29;20393;-64
2021/08/09 04:12:33;;;;;;;2.75;1.52;;;;;;;21.16;57.92;100506.38;4952863;29;20114;-64
2021/08/09 04:14:59;;;;;;;2.05;1.33;;;;;;;21.14;57.71;100503.91;4952859;29;20035;-64
2021/08/09 04:17:24;;;;;;;3.17;1.20;;;;;;;21.15;58.10;100504.75;4944242;29;20087;-65
2021/08/09 04:19:50;;;;;;;2.05;1.10;;;;;;;21.13;57.94;100498.78;4947925;29;20035;-65
2021/08/09 04:22:15;;;;;;;2.08;1.05;;;;;;;21.14;57.79;100501.25;4948416;29;20099;-64
2021/08/09 04:24:41;;;;;;;2.58;1.20;;;;;;;21.14;57.71;100503.09;4952999;29;20036;-64
2021/08/09 04:27:06;;;;;;;2.85;1.40;;;;;;;21.14;57.96;100495.09;4953410;29;20114;-64
2021/08/09 04:29:32;;;;;;;2.25;1.20;;;;;;;21.13;57.97;100504.94;4953644;29;20096;-65
2021/08/09 04:31:57;;;;;;;3.50;1.20;;;;;;;21.14;58.12;100509.25;4952924;29;20035;-64
2021/08/09 04:34:23;;;;;;;1.92;0.90;;;;;;;21.12;58.10;100497.97;4917466;29;20044;-65
2021/08/09 04:36:48;;;;;;;1.88;1.20;;;;;;;21.13;58.24;100504.13;4948122;29;20043;-64
2021/08/09 04:39:13;;;;;;;3.38;1.10;;;;;;;21.12;57.87;100505.16;4953188;29;20031;-64
2021/08/09 04:41:39;;;;;;;2.13;1.17;;;;;;;21.13;57.83;100498.78;4953401;29;20066;-65
2021/08/09 04:44:06;;;;;;;2.17;1.25;;;;;;;21.12;57.77;100499.81;4953278;29;20078;-67
2021/08/09 04:46:32;;;;;;;2.00;1.15;;;;;;;21.13;57.85;100501.47;4952957;29;20444;-64
2021/08/09 04:48:57;;;;;;;1.88;1.00;;;;;;;21.13;57.85;100506.78;4936038;29;20035;-64
2021/08/09 04:51:22;;;;;;;2.10;1.10;;;;;;;21.12;57.83;100503.31;4952892;29;20066;-65
2021/08/09 04:53:48;;;;;;;2.10;0.98;;;;;;;21.12;57.92;100497.16;4952747;28;20118;-64
2021/08/09 04:56:13;;;;;;;1.55;1.00;;;;;;;21.11;57.70;100503.53;4952697;29;20374;-64
2021/08/09 04:58:39;;;;;;;2.03;1.10;;;;;;;21.12;58.19;100505.16;4935903;29;20099;-64
2021/08/09 05:01:04;;;;;;;2.35;1.00;;;;;;;21.11;57.73;100500.84;4951343;29;20035;-66
2021/08/09 05:03:36;;;;;;;2.40;1.20;;;;;;;21.09;57.78;100495.75;4952096;28;20039;-65
2021/08/09 05:06:01;;;;;;;2.78;1.02;;;;;;;21.12;57.73;100494.50;4953090;29;20035;-65
2021/08/09 05:08:26;;;;;;;2.17;1.20;;;;;;;21.10;58.00;100497.38;4951453;29;20495;-64
2021/08/09 05:10:52;;;;;;;2.17;1.02;;;;;;;21.11;58.06;100490.19;4952930;29;20043;-64
2021/08/09 05:13:17;;;;;;;1.65;0.90;;;;;;;21.10;58.14;100492.03;4952132;29;20047;-65
2021/08/09 05:15:43;;;;;;;2.20;1.10;;;;;;;21.11;58.11;100500.84;4935109;29;20667;-65
2021/08/09 05:18:12;;;;;;;1.75;1.10;;;;;;;21.09;57.60;100493.06;4934730;29;20035;-65
2021/08/09 05:20:38;;;;;;;1.95;0.80;;;;;;;21.10;57.74;100494.72;4952996;29;20053;-65
2021/08/09 05:23:03;;;;;;;2.95;1.10;;;;;;;21.10;57.81;100485.88;4952225;29;20034;-65
2021/08/09 05:25:31;;;;;;;2.13;1.10;;;;;;;21.10;57.72;100497.38;4951799;29;20038;-64
2021/08/09 05:27:57;;;;;;;1.45;0.90;;;;;;;21.10;58.11;100497.38;4952868;29;20062;-64
2021/08/09 05:30:22;;;;;;;2.20;1.20;;;;;;;21.10;57.78;100500.03;4952056;29;20075;-64
2021/08/09 05:32:48;;;;;;;2.08;1.00;;;;;;;21.10;57.65;100501.88;4952122;29;20126;-64
2021/08/09 05:35:14;;;;;;;2.03;0.90;;;;;;;21.10;57.89;100504.56;4952068;29;20043;-64
2021/08/09 05:37:40;;;;;;;2.35;0.90;;;;;;;21.09;57.76;100495.75;4952687;29;20049;-64
2021/08/09 05:40:07;;;;;;;2.08;1.15;;;;;;;21.10;57.97;100499.22;4935038;29;20397;-65
2021/08/09 05:42:32;;;;;;;2.40;1.00;;;;;;;21.09;58.05;100497.59;4951740;29;20054;-64
2021/08/09 05:44:58;;;;;;;1.92;1.10;;;;;;;21.09;58.03;100502.91;4952484;29;20031;-64
2021/08/09 05:47:23;;;;;;;2.00;0.98;;;;;;;21.09;57.82;100501.06;4951300;29;20126;-64
2021/08/09 05:49:49;;;;;;;2.83;1.15;;;;;;;21.08;57.71;100510.09;4935073;29;20035;-64
2021/08/09 05:52:21;;;;;;;1.45;1.00;;;;;;;21.08;57.80;100506.63;4934516;29;20144;-64
2021/08/09 05:54:47;;;;;;;1.80;0.90;;;;;;;21.08;58.07;100504.78;4934107;29;20035;-64
2021/08/09 05:57:13;;;;;;;2.13;1.08;;;;;;;21.08;57.70;100509.28;4951805;29;20417;-65
2021/08/09 05:59:39;;;;;;;2.03;0.95;;;;;;;21.07;58.11;100505.81;4951492;29;20031;-64
2021/08/09 06:02:05;;;;;;;1.75;0.90;;;;;;;21.08;58.01;100515.44;4943495;29;20069;-64
2021/08/09 06:04:31;;;;;;;2.65;0.90;;;;;;;21.08;58.19;100511.97;4934264;29;20038;-64
2021/08/09 06:06:57;;;;;;;1.95;0.82;;;;;;;21.08;58.02;100519.97;4951853;29;20066;-64
2021/08/09 06:09:22;;;;;;;2.50;1.00;;;;;;;21.06;58.04;100511.34;4951428;29;20043;-64
2021/08/09 06:11:48;;;;;;;2.15;1.25;;;;;;;21.06;57.69;100516.69;4951544;29;20061;-64
2021/08/09 06:14:13;;;;;;;1.55;1.00;;;;;;;21.06;57.93;100522.03;4951437;28;20469;-65
2021/08/09 06:16:38;;;;;;;1.73;0.80;;;;;;;21.07;57.94;100523.66;4950569;28;20039;-64
2021/08/09 06:19:04;;;;;;;1.55;0.90;;;;;;;21.07;57.68;100521.81;4951595;29;20050;-64
2021/08/09 06:21:29;;;;;;;2.60;1.17;;;;;;;21.07;57.87;100526.31;4950784;29;20103;-64
2021/08/09 06:23:55;;;;;;;1.48;0.85;;;;;;;21.05;57.72;100515.06;4951572;29;20042;-64
2021/08/09 06:26:20;;;;;;;1.42;0.70;;;;;;;21.06;57.81;100527.38;4951594;29;20039;-64
2021/08/09 06:28:45;;;;;;;1.73;0.93;;;;;;;21.06;57.95;100524.69;4951368;29;20035;-64
2021/08/09 06:31:11;;;;;;;2.13;1.10;;;;;;;21.05;57.58;100531.88;4934222;29;20058;-64
2021/08/09 06:33:36;;;;;;;1.63;0.77;;;;;;;21.05;57.93;100534.53;4951003;29;20114;-65
2021/08/09 06:36:02;;;;;;;1.20;0.73;;;;;;;21.05;58.03;100533.72;4951514;29;20137;-64
2021/08/09 06:38:27;;;;;;;1.92;0.90;;;;;;;21.05;57.69;100526.53;4933393;29;20050;-64
2021/08/09 06:40:53;;;;;;;1.33;0.80;;;;;;;21.04;57.79;100538.25;4924363;28;20038;-64
2021/08/09 06:43:18;;;;;;;1.95;0.73;;;;;;;21.05;57.51;100536.38;4941354;29;20035;-64
2021/08/09 06:45:44;;;;;;;2.35;0.98;;;;;;;21.04;57.75;100535.56;4932967;29;20114;-65
2021/08/09 06:48:11;;;;;;;1.83;1.08;;;;;;;21.04;57.63;100534.75;4951492;29;20065;-64
2021/08/09 06:50:39;;;;;;;1.98;1.02;;;;;;;21.03;57.68;100533.13;4950624;29;20059;-64
2021/08/09 06:53:04;;;;;;;1.95;0.75;;;;;;;21.03;57.92;100541.94;4950730;29;20552;-64
2021/08/09 06:55:29;;;;;;;1.70;1.08;;;;;;;21.03;57.66;100543.78;4917879;29;20063;-64
2021/08/09 06:57:56;;;;;;;1.45;0.90;;;;;;;21.04;57.79;100550.75;4920744;29;20047;-64
2021/08/09 07:00:21;;;;;;;1.55;0.90;;;;;;;21.04;57.70;100548.09;4948778;29;20035;-64
2021/08/09 07:02:47;;;;;;;2.45;0.95;;;;;;;21.04;57.79;100545.44;4944807;29;20038;-64
2021/08/09 07:05:12;;;;;;;2.22;1.00;;;;;;;21.03;57.61;100551.78;4951318;29;20045;-64
2021/08/09 07:07:40;;;;;;;1.25;0.77;;;;;;;21.03;57.84;100547.28;4950528;29;20035;-64
2021/08/09 07:10:06;;;;;;;2.22;1.00;;;;;;;21.03;57.76;100546.47;4950659;29;20106;-64
2021/08/09 07:12:31;;;;;;;2.45;1.00;;;;;;;21.01;57.78;100546.69;4949342;29;20118;-64
2021/08/09 07:14:57;;;;;;;4.00;1.05;;;;;;;21.02;58.19;100547.50;4950976;29;20131;-64
2021/08/09 07:17:22;;;;;;;2.72;1.05;;;;;;;21.02;58.00;100547.50;4955681;29;20039;-65
2021/08/09 07:19:47;;;;;;;3.13;0.95;;;;;;;21.02;57.99;100550.16;4933834;29;20117;-64
2021/08/09 07:22:13;;;;;;;2.40;1.00;;;;;;;21.02;58.14;100542.97;4933179;29;20556;-63
2021/08/09 07:24:38;;;;;;;2.72;1.08;;;;;;;21.02;58.37;100548.31;4931932;29;20039;-64
2021/08/09 07:27:04;;;;;;;3.83;1.10;;;;;;;21.02;58.53;100547.50;4950101;28;20397;-65
2021/08/09 07:29:31;;;;;;;2.38;1.15;;;;;;;21.03;58.65;100554.47;4945507;29;20051;-65
2021/08/09 07:31:57;;;;;;;3.03;1.23;;;;;;;21.02;58.47;100548.31;4935635;29;20138;-65
2021/08/09 07:34:22;;;;;;;1.70;1.05;;;;;;;21.01;58.09;100553.84;4917416;29;20119;-65
2021/08/09 07:36:48;;;;;;;2.45;1.05;;;;;;;20.98;57.97;100556.94;4948086;29;20393;-65
2021/08/09 07:39:13;;;;;;;2.22;1.17;;;;;;;20.96;58.27;100559.00;4934821;29;20039;-65
2021/08/09 07:41:39;;;;;;;5.20;1.23;;;;;;;20.94;58.21;100559.19;4953274;29;20747;-65
2021/08/09 07:44:04;;;;;;;4.57;1.30;;;;;;;20.92;58.07;100554.09;4936753;29;20049;-64
2021/08/09 07:46:30;;;;;;;5.03;1.45;;;;;;;20.90;57.94;100556.16;4953237;29;20043;-63
2021/08/09 07:48:57;;;;;;;6.07;1.75;;;;;;;20.88;58.37;100560.88;4954026;29;20042;-65
2021/08/09 07:51:22;;;;;;;5.35;1.52;;;;;;;20.86;58.15;100554.94;4937219;29;20031;-65
2021/08/09 07:53:48;;;;;;;3.70;1.63;;;;;;;20.83;58.06;100549.22;4934071;29;20473;-65
2021/08/09 07:56:13;;;;;;;3.70;1.50;;;;;;;20.82;57.95;100552.88;4920696;29;20035;-65
2021/08/09 07:58:38;;;;;;;2.92;1.40;;;;;;;20.81;58.02;100551.25;4936208;29;20114;-65
2021/08/09 08:01:04;;;;;;;7.72;1.48;;;;;;;20.81;57.83;100556.59;4952157;29;20718;-67
2021/08/09 08:03:29;;;;;;;3.30;1.60;;;;;;;20.80;57.99;100561.09;4951459;29;20388;-66
2021/08/09 08:05:55;;;;;;;6.30;1.70;;;;;;;20.80;57.83;100555.75;4932227;28;20053;-65
2021/08/09 08:08:21;;;;;;;3.17;1.50;;;;;;;20.81;58.11;100560.06;4953384;28;20043;-65
2021/08/09 08:10:46;;;;;;;4.50;1.50;;;;;;;20.83;58.23;100565.22;4953421;29;20042;-65
2021/08/09 08:13:12;;;;;;;7.00;1.60;;;;;;;20.81;57.98;100556.59;4936521;29;20039;-64
2021/08/09 08:15:37;;;;;;;4.28;1.58;;;;;;;20.83;58.05;100562.56;4943941;29;20031;-66
2021/08/09 08:18:03;;;;;;;2.88;1.60;;;;;;;20.83;58.17;100562.56;4949612;29;20400;-65
2021/08/09 08:20:28;;;;;;;6.03;1.73;;;;;;;20.81;58.32;100556.59;4935964;29;20035;-65
2021/08/09 08:22:55;;;;;;;4.72;1.77;;;;;;;20.79;58.20;100554.13;4952179;29;20174;-65
2021/08/09 08:25:20;;;;;;;5.88;1.73;;;;;;;20.78;57.90;100554.34;4934276;29;20039;-65
2021/08/09 08:27:46;;;;;;;4.22;1.55;;;;;;;20.75;57.93;100558.25;4926611;29;20028;-65
2021/08/09 08:30:12;;;;;;;4.07;1.60;;;;;;;20.73;58.26;100556.84;4937048;29;20509;-66
2021/08/09 08:32:38;;;;;;;2.90;1.45;;;;;;;20.72;57.88;100558.69;4934646;29;20046;-65
2021/08/09 08:35:04;;;;;;;4.85;1.90;;;;;;;20.70;58.17;100563.41;4935504;29;20035;-65
2021/08/09 08:37:29;;;;;;;2.60;1.27;;;;;;;20.69;58.05;100558.28;4907145;28;20062;-65
2021/08/09 08:39:55;;;;;;;6.55;1.60;;;;;;;20.69;57.76;100563.63;4928424;29;20489;-64
2021/08/09 08:42:21;;;;;;;4.68;1.70;;;;;;;20.68;57.89;100570.78;4952563;29;20028;-66
2021/08/09 08:44:46;;;;;;;5.63;1.90;;;;;;;20.68;57.90;100570.78;4934830;29;20477;-65
2021/08/09 08:47:17;;;;;;;4.53;1.70;;;;;;;20.67;57.76;100557.66;4952148;29;20740;-65
2021/08/09 08:49:43;;;;;;;6.30;1.80;;;;;;;20.67;57.83;100561.16;4953220;29;20031;-65
2021/08/09 08:52:09;;;;;;;6.20;2.13;;;;;;;20.66;58.21;100559.50;4929221;29;20572;-65
2021/08/09 08:54:34;;;;;;;6.13;2.05;;;;;;;20.66;57.68;100564.00;4932249;29;20043;-65
2021/08/09 08:57:03;;;;;;;2.70;1.42;;;;;;;20.64;58.01;100567.72;4951367;29;20125;-66
2021/08/09 08:59:30;;;;;;;1.77;1.17;;;;;;;20.65;58.07;100557.88;4950712;29;20036;-66
2021/08/09 09:01:56;;;;;;;3.13;1.42;;;;;;;20.64;57.88;100566.88;4943273;29;20059;-65
2021/08/09 09:04:21;;;;;;;2.70;1.13;;;;;;;20.63;57.68;100565.25;4951867;29;20125;-65
2021/08/09 09:06:47;;;;;;;1.65;1.13;;;;;;;20.62;57.73;100567.09;4951059;29;20458;-65
2021/08/09 09:09:23;;;;;;;2.60;1.33;;;;;;;20.60;57.80;100576.34;4933638;29;20074;-66
2021/08/09 09:11:49;;;;;;;3.78;1.15;;;;;;;20.62;57.79;100575.09;4950216;29;20420;-65
2021/08/09 09:14:32;;;;;;;1.73;1.00;;;;;;;20.60;57.35;100566.50;4951418;29;20032;-65
2021/08/09 09:16:58;;;;;;;1.70;1.00;;;;;;;20.62;57.54;100569.78;4950903;29;20387;-65
2021/08/09 09:19:44;;;;;;;2.22;1.13;;;;;;;20.59;57.24;100578.19;4951063;29;20035;-65
2021/08/09 09:22:18;;;;;;;3.15;1.30;;;;;;;20.60;57.35;100574.50;4952434;29;20027;-65
2021/08/09 09:24:55;;;;;;;2.17;1.17;;;;;;;20.58;57.28;100573.88;4952060;29;20046;-65
2021/08/09 09:27:34;;;;;;;2.13;1.17;;;;;;;20.59;57.35;100580.84;4939734;29;20481;-65
2021/08/09 09:30:29;;;;;;;2.60;1.13;;;;;;;20.58;57.53;100587.22;4952006;28;20083;-66
2021/08/09 09:33:04;;;;;;;2.97;1.25;;;;;;;20.62;57.52;100580.44;4935020;29;20031;-65
2021/08/09 09:35:36;;;;;;;2.28;1.10;;;;;;;20.63;57.30;100587.41;4952601;29;20031;-67
2021/08/09 09:38:01;;;;;;;3.75;1.20;;;;;;;20.63;57.61;100584.72;4952708;29;20102;-66
2021/08/09 09:40:38;;;;;;;2.42;1.73;;;;;;;20.63;57.61;100576.72;4934884;29;20162;-66
2021/08/09 09:43:17;;;;;;;3.40;1.20;;;;;;;20.62;57.80;100587.59;4952005;29;20047;-66
2021/08/09 09:45:51;;;;;;;1.88;1.10;;;;;;;20.64;57.49;100588.22;4951469;29;20089;-65
2021/08/09 09:48:17;;;;;;;5.25;1.83;;;;;;;20.66;57.92;100585.34;4952251;29;20098;-66
2021/08/09 09:50:43;;;;;;;3.60;1.65;;;;;;;20.67;57.46;100587.81;4950871;28;20043;-65
2021/08/09 09:53:20;;;;;;;6.25;1.65;;;;;;;20.64;57.82;100581.03;4951914;29;20044;-66
2021/08/09 09:55:48;;;;;;;3.20;1.58;;;;;;;20.67;57.77;100582.50;4952157;29;20050;-66
2021/08/09 09:58:14;;;;;;;4.72;1.75;;;;;;;20.68;58.17;100586.78;4930575;29;20045;-65
2021/08/09 10:00:41;;;;;;;3.55;1.60;;;;;;;20.69;57.80;100587.59;4922459;29;20178;-66
2021/08/09 10:03:08;;;;;;;6.57;1.77;;;;;;;20.69;58.03;100591.09;4949260;29;20520;-64
2021/08/09 10:05:36;;;;;;;3.15;1.42;;;;;;;20.70;57.72;100583.91;4952035;29;20039;-64
2021/08/09 10:08:03;;;;;;;4.30;1.40;;;;;;;20.70;57.73;100584.72;4934489;29;20054;-65
2021/08/09 10:10:29;;;;;;;4.07;1.52;;;;;;;20.71;58.07;100594.38;4952203;29;20039;-66
2021/08/09 10:12:54;;;;;;;3.05;1.60;;;;;;;20.71;57.73;100591.69;4951432;29;20032;-66
2021/08/09 10:15:20;;;;;;;3.28;1.58;;;;;;;20.70;58.18;100600.72;4951584;29;20046;-62
2021/08/09 10:17:47;;;;;;;8.73;2.30;;;;;;;20.71;57.77;100594.38;4950680;29;20039;-65
2021/08/09 10:20:16;;;;;;;5.43;1.95;;;;;;;20.70;58.11;100595.41;4950515;29;20380;-64
2021/08/09 10:22:54;;;;;;;5.55;2.30;;;;;;;20.68;57.97;100600.13;4950787;29;20035;-64
2021/08/09 10:25:47;;;;;;;8.52;2.58;;;;;;;20.67;58.04;100601.16;4950524;29;20129;-65
2021/08/09 10:28:13;;;;;;;7.75;2.85;;;;;;;20.70;57.93;100603.38;4950951;29;20047;-65
2021/08/09 10:30:40;;;;;;;9.32;2.42;;;;;;;20.71;57.95;100610.34;4943879;28;20051;-64
2021/08/09 10:33:09;;;;;;;7.45;2.72;;;;;;;20.72;58.46;100616.50;4942990;29;20083;-64
2021/08/09 10:35:40;;;;;;;9.38;3.10;;;;;;;20.72;58.35;100605.84;4933509;29;20043;-66
2021/08/09 10:38:22;;;;;;;10.30;3.08;;;;;;;20.68;58.31;100607.28;4914978;29;20040;-64
2021/08/09 10:41:07;;;;;;;9.95;2.80;;;;;;;20.67;58.55;100601.16;4914721;29;20485;-64
2021/08/09 10:43:33;;;;;;;7.82;3.28;;;;;;;20.71;58.54;100604.22;4932259;29;20142;-64
2021/08/09 10:45:58;;;;;;;10.00;3.00;;;;;;;20.71;58.65;100615.69;4919743;29;20139;-64
2021/08/09 10:48:42;;;;;;;12.70;3.33;;;;;;;20.68;58.65;100613.44;4939892;29;20032;-64
2021/08/09 10:51:08;;;;;;;7.70;2.95;;;;;;;20.71;58.41;100623.69;4925485;29;20041;-64
2021/08/09 10:53:33;;;;;;;10.40;3.17;;;;;;;20.72;58.82;100622.66;4938704;29;20043;-65
2021/08/09 10:56:00;;;;;;;15.65;3.72;;;;;;;20.73;58.62;100615.47;4931481;29;20394;-68
2021/08/09 10:58:40;;;;;;;16.90;3.65;;;;;;;20.70;59.05;100615.91;4932143;29;20522;-66
2021/08/09 11:01:06;;;;;;;16.10;3.38;;;;;;;20.75;59.35;100622.22;4931044;29;20031;-66
2021/08/09 11:03:31;;;;;;;7.95;3.47;;;;;;;20.74;59.45;100617.94;4936028;29;20036;-66
2021/08/09 11:05:57;;;;;;;8.88;3.33;;;;;;;20.75;60.02;100621.41;4936090;29;20041;-66
2021/08/09 11:08:22;;;;;;;10.85;3.40;;;;;;;20.76;60.24;100623.88;4935349;29;20417;-66
2021/08/09 11:10:51;;;;;;;8.48;3.33;;;;;;;20.76;60.58;100628.38;4935501;29;20115;-65
2021/08/09 11:13:16;;;;;;;5.75;2.75;;;;;;;20.77;60.42;100624.69;4935658;29;20104;-65
2021/08/09 11:15:55;;;;;;;9.68;3.05;;;;;;;20.75;60.35;100630.22;4918461;29;20432;-66
2021/08/09 11:18:22;;;;;;;10.25;3.63;;;;;;;20.78;60.45;100631.66;4935379;29;20382;-64
2021/08/09 11:20:47;;;;;;;9.35;3.83;;;;;;;20.79;60.76;100631.44;4943480;29;20035;-65
2021/08/09 11:23:16;;;;;;;8.02;3.45;;;;;;;20.80;60.94;100629.59;4940605;29;20054;-65
2021/08/09 11:25:46;;;;;;;7.40;3.33;;;;;;;20.81;60.67;100632.03;4918263;29;20500;-65